sensor_id;sensor_type;location;lat;lon;timestamp;P1;durP1;ratioP1;P2;durP2;ratioP2
46931;SDS011;32670;51.464;11.964;2023-07-29T00:01:59;0.80;;;0.80;;
46931;SDS011;32670;51.464;11.964;2023-07-29T00:04:24;1.10;;;0.90;;
46931;SDS011;32670;51.464;11.964;2023-07-29T00:06:50;0.80;;;0.80;;
46931;SDS011;32670;51.464;11.964;2023-07-29T00:09:15;0.90;;;0.90;;
46931;SDS011;32670;51.464;11.964;2023-07-29T00:11:41;1.43;;;0.90;;
46931;SDS011;32670;51.464;11.964;2023-07-29T00:14:06;3.33;;;0.87;;
46931;SDS011;32670;51.464;11.964;2023-07-29T00:16:31;0.63;;;0.63;;
46931;SDS011;32670;51.464;11.964;2023-07-29T00:18:57;0.87;;;0.87;;
46931;SDS011;32670;51.464;11.964;2023-07-29T00:21:22;0.90;;;0.90;;
46931;SDS011;32670;51.464;11.964;2023-07-29T00:23:48;0.70;;;0.70;;
46931;SDS011;32670;51.464;11.964;2023-07-29T00:26:13;0.60;;;0.60;;
46931;SDS011;32670;51.464;11.964;2023-07-29T00:28:39;1.10;;;0.90;;
46931;SDS011;32670;51.464;11.964;2023-07-29T00:31:05;0.93;;;0.90;;
46931;SDS011;32670;51.464;11.964;2023-07-29T00:33:30;0.97;;;0.83;;
46931;SDS011;32670;51.464;11.964;2023-07-29T00:35:56;1.40;;;0.80;;
46931;SDS011;32670;51.464;11.964;2023-07-29T00:38:21;0.87;;;0.83;;
46931;SDS011;32670;51.464;11.964;2023-07-29T00:40:47;0.80;;;0.80;;
46931;SDS011;32670;51.464;11.964;2023-07-29T00:43:12;0.70;;;0.70;;
46931;SDS011;32670;51.464;11.964;2023-07-29T00:45:38;0.80;;;0.80;;
46931;SDS011;32670;51.464;11.964;2023-07-29T00:48:04;0.80;;;0.80;;
46931;SDS011;32670;51.464;11.964;2023-07-29T00:50:30;2.00;;;0.80;;
46931;SDS011;32670;51.464;11.964;2023-07-29T00:52:57;1.00;;;0.90;;
46931;SDS011;32670;51.464;11.964;2023-07-29T00:55:22;0.63;;;0.63;;
46931;SDS011;32670;51.464;11.964;2023-07-29T00:57:48;0.80;;;0.80;;
46931;SDS011;32670;51.464;11.964;2023-07-29T01:00:16;1.37;;;0.77;;
46931;SDS011;32670;51.464;11.964;2023-07-29T01:02:42;0.70;;;0.70;;
46931;SDS011;32670;51.464;11.964;2023-07-29T01:05:08;0.80;;;0.80;;
46931;SDS011;32670;51.464;11.964;2023-07-29T01:07:44;1.63;;;0.80;;
46931;SDS011;32670;51.464;11.964;2023-07-29T01:10:29;1.57;;;0.80;;
46931;SDS011;32670;51.464;11.964;2023-07-29T01:13:06;0.80;;;0.80;;
46931;SDS011;32670;51.464;11.964;2023-07-29T01:16:06;0.70;;;0.70;;
46931;SDS011;32670;51.464;11.964;2023-07-29T01:18:36;0.70;;;0.70;;
46931;SDS011;32670;51.464;11.964;2023-07-29T01:21:08;0.70;;;0.70;;
46931;SDS011;32670;51.464;11.964;2023-07-29T01:23:36;0.87;;;0.87;;
46931;SDS011;32670;51.464;11.964;2023-07-29T01:26:02;0.80;;;0.80;;
46931;SDS011;32670;51.464;11.964;2023-07-29T01:28:28;1.23;;;0.70;;
46931;SDS011;32670;51.464;11.964;2023-07-29T01:30:57;0.70;;;0.70;;
46931;SDS011;32670;51.464;11.964;2023-07-29T01:33:31;1.07;;;0.80;;
46931;SDS011;32670;51.464;11.964;2023-07-29T01:36:03;1.07;;;0.80;;
46931;SDS011;32670;51.464;11.964;2023-07-29T01:38:36;0.80;;;0.80;;
46931;SDS011;32670;51.464;11.964;2023-07-29T01:41:06;1.20;;;0.90;;
46931;SDS011;32670;51.464;11.964;2023-07-29T01:43:33;0.90;;;0.90;;
46931;SDS011;32670;51.464;11.964;2023-07-29T01:45:58;0.70;;;0.70;;
46931;SDS011;32670;51.464;11.964;2023-07-29T01:48:25;1.00;;;0.80;;
46931;SDS011;32670;51.464;11.964;2023-07-29T01:50:52;1.17;;;0.70;;
46931;SDS011;32670;51.464;11.964;2023-07-29T01:53:18;0.93;;;0.80;;
46931;SDS011;32670;51.464;11.964;2023-07-29T01:55:43;0.93;;;0.80;;
46931;SDS011;32670;51.464;11.964;2023-07-29T01:58:09;0.90;;;0.90;;
46931;SDS011;32670;51.464;11.964;2023-07-29T02:00:35;0.80;;;0.80;;
46931;SDS011;32670;51.464;11.964;2023-07-29T02:03:01;0.90;;;0.90;;
46931;SDS011;32670;51.464;11.964;2023-07-29T02:05:26;0.70;;;0.70;;
46931;SDS011;32670;51.464;11.964;2023-07-29T02:07:52;0.80;;;0.80;;
46931;SDS011;32670;51.464;11.964;2023-07-29T02:10:17;0.80;;;0.80;;
46931;SDS011;32670;51.464;11.964;2023-07-29T02:12:43;0.80;;;0.80;;
46931;SDS011;32670;51.464;11.964;2023-07-29T02:15:08;0.90;;;0.80;;
46931;SDS011;32670;51.464;11.964;2023-07-29T02:17:34;1.43;;;0.87;;
46931;SDS011;32670;51.464;11.964;2023-07-29T02:20:01;0.80;;;0.80;;
46931;SDS011;32670;51.464;11.964;2023-07-29T02:22:28;1.43;;;0.80;;
46931;SDS011;32670;51.464;11.964;2023-07-29T02:24:54;0.73;;;0.73;;
46931;SDS011;32670;51.464;11.964;2023-07-29T02:27:19;1.97;;;0.80;;
46931;SDS011;32670;51.464;11.964;2023-07-29T02:29:45;0.77;;;0.70;;
46931;SDS011;32670;51.464;11.964;2023-07-29T02:32:10;0.80;;;0.80;;
46931;SDS011;32670;51.464;11.964;2023-07-29T02:34:36;0.80;;;0.80;;
46931;SDS011;32670;51.464;11.964;2023-07-29T02:37:01;3.03;;;0.90;;
46931;SDS011;32670;51.464;11.964;2023-07-29T02:39:27;0.83;;;0.83;;
46931;SDS011;32670;51.464;11.964;2023-07-29T02:41:52;0.77;;;0.77;;
46931;SDS011;32670;51.464;11.964;2023-07-29T02:44:18;0.80;;;0.80;;
46931;SDS011;32670;51.464;11.964;2023-07-29T02:46:45;0.90;;;0.90;;
46931;SDS011;32670;51.464;11.964;2023-07-29T02:49:10;0.77;;;0.77;;
46931;SDS011;32670;51.464;11.964;2023-07-29T02:51:36;0.70;;;0.70;;
46931;SDS011;32670;51.464;11.964;2023-07-29T02:54:02;1.63;;;0.90;;
46931;SDS011;32670;51.464;11.964;2023-07-29T02:56:27;2.13;;;0.70;;
46931;SDS011;32670;51.464;11.964;2023-07-29T02:58:53;0.70;;;0.70;;
46931;SDS011;32670;51.464;11.964;2023-07-29T03:01:18;0.70;;;0.63;;
46931;SDS011;32670;51.464;11.964;2023-07-29T03:03:44;1.17;;;0.90;;
46931;SDS011;32670;51.464;11.964;2023-07-29T03:06:11;0.70;;;0.70;;
46931;SDS011;32670;51.464;11.964;2023-07-29T03:08:40;0.90;;;0.87;;
46931;SDS011;32670;51.464;11.964;2023-07-29T03:11:06;1.33;;;0.80;;
46931;SDS011;32670;51.464;11.964;2023-07-29T03:13:33;1.90;;;0.90;;
46931;SDS011;32670;51.464;11.964;2023-07-29T03:16:08;0.83;;;0.83;;
46931;SDS011;32670;51.464;11.964;2023-07-29T03:18:35;1.17;;;0.90;;
46931;SDS011;32670;51.464;11.964;2023-07-29T03:21:01;0.70;;;0.70;;
46931;SDS011;32670;51.464;11.964;2023-07-29T03:23:28;0.90;;;0.90;;
46931;SDS011;32670;51.464;11.964;2023-07-29T03:25:57;0.70;;;0.70;;
46931;SDS011;32670;51.464;11.964;2023-07-29T03:28:27;2.03;;;0.80;;
46931;SDS011;32670;51.464;11.964;2023-07-29T03:30:54;0.90;;;0.90;;
46931;SDS011;32670;51.464;11.964;2023-07-29T03:33:21;1.07;;;0.97;;
46931;SDS011;32670;51.464;11.964;2023-07-29T03:35:47;1.23;;;0.90;;
46931;SDS011;32670;51.464;11.964;2023-07-29T03:38:12;1.00;;;0.90;;
46931;SDS011;32670;51.464;11.964;2023-07-29T03:40:38;1.30;;;0.80;;
46931;SDS011;32670;51.464;11.964;2023-07-29T03:43:04;0.70;;;0.70;;
46931;SDS011;32670;51.464;11.964;2023-07-29T03:45:30;0.70;;;0.70;;
46931;SDS011;32670;51.464;11.964;2023-07-29T03:47:55;0.70;;;0.70;;
46931;SDS011;32670;51.464;11.964;2023-07-29T03:50:21;1.00;;;1.00;;
46931;SDS011;32670;51.464;11.964;2023-07-29T03:52:46;1.20;;;0.87;;
46931;SDS011;32670;51.464;11.964;2023-07-29T03:55:12;2.67;;;0.80;;
46931;SDS011;32670;51.464;11.964;2023-07-29T03:57:37;1.97;;;1.00;;
46931;SDS011;32670;51.464;11.964;2023-07-29T04:00:03;1.27;;;1.13;;
46931;SDS011;32670;51.464;11.964;2023-07-29T04:02:29;0.90;;;0.90;;
46931;SDS011;32670;51.464;11.964;2023-07-29T04:04:55;1.83;;;0.93;;
46931;SDS011;32670;51.464;11.964;2023-07-29T04:07:20;0.87;;;0.80;;
46931;SDS011;32670;51.464;11.964;2023-07-29T04:09:46;0.70;;;0.70;;
46931;SDS011;32670;51.464;11.964;2023-07-29T04:12:12;1.03;;;1.03;;
46931;SDS011;32670;51.464;11.964;2023-07-29T04:14:37;1.37;;;1.00;;
46931;SDS011;32670;51.464;11.964;2023-07-29T04:17:03;1.03;;;1.00;;
46931;SDS011;32670;51.464;11.964;2023-07-29T04:19:29;3.07;;;0.90;;
46931;SDS011;32670;51.464;11.964;2023-07-29T04:21:54;1.80;;;1.00;;
46931;SDS011;32670;51.464;11.964;2023-07-29T04:24:19;1.10;;;0.90;;
46931;SDS011;32670;51.464;11.964;2023-07-29T04:26:48;0.90;;;0.90;;
46931;SDS011;32670;51.464;11.964;2023-07-29T04:29:13;2.40;;;0.80;;
46931;SDS011;32670;51.464;11.964;2023-07-29T04:31:39;0.93;;;0.93;;
46931;SDS011;32670;51.464;11.964;2023-07-29T04:34:04;2.33;;;0.90;;
46931;SDS011;32670;51.464;11.964;2023-07-29T04:36:30;0.80;;;0.80;;
46931;SDS011;32670;51.464;11.964;2023-07-29T04:38:55;2.53;;;1.00;;
46931;SDS011;32670;51.464;11.964;2023-07-29T04:41:21;0.93;;;0.93;;
46931;SDS011;32670;51.464;11.964;2023-07-29T04:43:46;1.13;;;1.00;;
46931;SDS011;32670;51.464;11.964;2023-07-29T04:46:12;0.90;;;0.90;;
46931;SDS011;32670;51.464;11.964;2023-07-29T04:48:37;0.80;;;0.80;;
46931;SDS011;32670;51.464;11.964;2023-07-29T04:51:03;1.13;;;1.00;;
46931;SDS011;32670;51.464;11.964;2023-07-29T04:53:28;0.90;;;0.90;;
46931;SDS011;32670;51.464;11.964;2023-07-29T04:55:54;0.90;;;0.90;;
46931;SDS011;32670;51.464;11.964;2023-07-29T04:58:19;0.90;;;0.90;;
46931;SDS011;32670;51.464;11.964;2023-07-29T05:00:46;0.83;;;0.80;;
46931;SDS011;32670;51.464;11.964;2023-07-29T05:03:12;1.00;;;0.90;;
46931;SDS011;32670;51.464;11.964;2023-07-29T05:05:37;1.93;;;0.90;;
46931;SDS011;32670;51.464;11.964;2023-07-29T05:08:03;0.70;;;0.70;;
46931;SDS011;32670;51.464;11.964;2023-07-29T05:10:28;2.57;;;1.10;;
46931;SDS011;32670;51.464;11.964;2023-07-29T05:12:54;5.30;;;1.27;;
46931;SDS011;32670;51.464;11.964;2023-07-29T05:15:19;2.70;;;1.13;;
46931;SDS011;32670;51.464;11.964;2023-07-29T05:17:45;4.73;;;1.10;;
46931;SDS011;32670;51.464;11.964;2023-07-29T05:20:10;2.20;;;1.07;;
46931;SDS011;32670;51.464;11.964;2023-07-29T05:22:36;1.97;;;1.10;;
46931;SDS011;32670;51.464;11.964;2023-07-29T05:25:02;0.87;;;0.87;;
46931;SDS011;32670;51.464;11.964;2023-07-29T05:27:28;2.10;;;1.10;;
46931;SDS011;32670;51.464;11.964;2023-07-29T05:29:53;1.60;;;1.00;;
46931;SDS011;32670;51.464;11.964;2023-07-29T05:32:19;1.43;;;0.80;;
46931;SDS011;32670;51.464;11.964;2023-07-29T05:34:44;1.20;;;1.07;;
46931;SDS011;32670;51.464;11.964;2023-07-29T05:37:10;1.00;;;0.90;;
46931;SDS011;32670;51.464;11.964;2023-07-29T05:39:35;1.83;;;1.10;;
46931;SDS011;32670;51.464;11.964;2023-07-29T05:42:01;1.07;;;1.00;;
46931;SDS011;32670;51.464;11.964;2023-07-29T05:44:27;1.17;;;1.10;;
46931;SDS011;32670;51.464;11.964;2023-07-29T05:46:55;1.10;;;1.00;;
46931;SDS011;32670;51.464;11.964;2023-07-29T05:49:20;0.97;;;0.90;;
46931;SDS011;32670;51.464;11.964;2023-07-29T05:51:46;1.03;;;0.93;;
46931;SDS011;32670;51.464;11.964;2023-07-29T05:54:11;1.50;;;1.00;;
46931;SDS011;32670;51.464;11.964;2023-07-29T05:56:37;1.20;;;1.10;;
46931;SDS011;32670;51.464;11.964;2023-07-29T05:59:02;1.77;;;1.10;;
46931;SDS011;32670;51.464;11.964;2023-07-29T06:01:28;2.43;;;1.10;;
46931;SDS011;32670;51.464;11.964;2023-07-29T06:03:53;2.50;;;1.07;;
46931;SDS011;32670;51.464;11.964;2023-07-29T06:06:19;1.30;;;1.10;;
46931;SDS011;32670;51.464;11.964;2023-07-29T06:08:44;1.57;;;1.10;;
46931;SDS011;32670;51.464;11.964;2023-07-29T06:11:10;2.07;;;1.00;;
46931;SDS011;32670;51.464;11.964;2023-07-29T06:13:35;1.07;;;0.97;;
46931;SDS011;32670;51.464;11.964;2023-07-29T06:16:00;1.63;;;1.37;;
46931;SDS011;32670;51.464;11.964;2023-07-29T06:18:26;1.40;;;1.30;;
46931;SDS011;32670;51.464;11.964;2023-07-29T06:20:51;1.47;;;1.33;;
46931;SDS011;32670;51.464;11.964;2023-07-29T06:23:17;1.70;;;1.47;;
46931;SDS011;32670;51.464;11.964;2023-07-29T06:25:42;5.63;;;2.17;;
46931;SDS011;32670;51.464;11.964;2023-07-29T06:28:08;4.50;;;2.10;;
46931;SDS011;32670;51.464;11.964;2023-07-29T06:30:34;5.67;;;1.80;;
46931;SDS011;32670;51.464;11.964;2023-07-29T06:33:00;2.20;;;1.77;;
46931;SDS011;32670;51.464;11.964;2023-07-29T06:35:26;10.87;;;1.97;;
46931;SDS011;32670;51.464;11.964;2023-07-29T06:37:51;6.93;;;1.80;;
46931;SDS011;32670;51.464;11.964;2023-07-29T06:40:16;11.90;;;1.80;;
46931;SDS011;32670;51.464;11.964;2023-07-29T06:42:42;2.97;;;1.80;;
46931;SDS011;32670;51.464;11.964;2023-07-29T06:45:07;2.87;;;1.67;;
46931;SDS011;32670;51.464;11.964;2023-07-29T06:47:33;2.87;;;1.57;;
46931;SDS011;32670;51.464;11.964;2023-07-29T06:49:59;3.43;;;1.80;;
46931;SDS011;32670;51.464;11.964;2023-07-29T06:52:24;2.77;;;1.80;;
46931;SDS011;32670;51.464;11.964;2023-07-29T06:54:50;4.43;;;1.97;;
46931;SDS011;32670;51.464;11.964;2023-07-29T06:57:15;8.77;;;1.90;;
46931;SDS011;32670;51.464;11.964;2023-07-29T06:59:41;4.10;;;1.73;;
46931;SDS011;32670;51.464;11.964;2023-07-29T07:02:06;2.33;;;1.50;;
46931;SDS011;32670;51.464;11.964;2023-07-29T07:04:32;4.37;;;1.97;;
46931;SDS011;32670;51.464;11.964;2023-07-29T07:06:57;2.67;;;1.87;;
46931;SDS011;32670;51.464;11.964;2023-07-29T07:09:23;3.80;;;1.80;;
46931;SDS011;32670;51.464;11.964;2023-07-29T07:11:48;4.97;;;1.83;;
46931;SDS011;32670;51.464;11.964;2023-07-29T07:14:14;3.90;;;1.80;;
46931;SDS011;32670;51.464;11.964;2023-07-29T07:16:39;4.27;;;1.90;;
46931;SDS011;32670;51.464;11.964;2023-07-29T07:19:05;3.73;;;1.70;;
46931;SDS011;32670;51.464;11.964;2023-07-29T07:21:31;3.00;;;2.13;;
46931;SDS011;32670;51.464;11.964;2023-07-29T07:23:57;3.40;;;1.83;;
46931;SDS011;32670;51.464;11.964;2023-07-29T07:26:23;2.50;;;1.93;;
46931;SDS011;32670;51.464;11.964;2023-07-29T07:28:48;2.90;;;2.03;;
46931;SDS011;32670;51.464;11.964;2023-07-29T07:31:14;1.90;;;1.80;;
46931;SDS011;32670;51.464;11.964;2023-07-29T07:33:41;3.97;;;1.97;;
46931;SDS011;32670;51.464;11.964;2023-07-29T07:36:06;2.63;;;2.00;;
46931;SDS011;32670;51.464;11.964;2023-07-29T07:38:32;3.87;;;1.93;;
46931;SDS011;32670;51.464;11.964;2023-07-29T07:40:57;2.10;;;1.80;;
46931;SDS011;32670;51.464;11.964;2023-07-29T07:43:23;2.50;;;2.00;;
46931;SDS011;32670;51.464;11.964;2023-07-29T07:45:49;2.83;;;2.10;;
46931;SDS011;32670;51.464;11.964;2023-07-29T07:48:14;3.13;;;2.10;;
46931;SDS011;32670;51.464;11.964;2023-07-29T07:50:41;2.80;;;2.20;;
46931;SDS011;32670;51.464;11.964;2023-07-29T07:53:07;4.03;;;2.00;;
46931;SDS011;32670;51.464;11.964;2023-07-29T07:55:33;2.40;;;1.67;;
46931;SDS011;32670;51.464;11.964;2023-07-29T07:57:58;2.40;;;2.20;;
46931;SDS011;32670;51.464;11.964;2023-07-29T08:00:23;1.90;;;1.73;;
46931;SDS011;32670;51.464;11.964;2023-07-29T08:02:49;2.20;;;1.90;;
46931;SDS011;32670;51.464;11.964;2023-07-29T08:05:14;2.13;;;1.80;;
46931;SDS011;32670;51.464;11.964;2023-07-29T08:07:40;2.30;;;1.93;;
46931;SDS011;32670;51.464;11.964;2023-07-29T08:10:05;3.37;;;2.30;;
46931;SDS011;32670;51.464;11.964;2023-07-29T08:12:32;2.20;;;2.00;;
46931;SDS011;32670;51.464;11.964;2023-07-29T08:14:57;2.87;;;2.10;;
46931;SDS011;32670;51.464;11.964;2023-07-29T08:17:23;3.73;;;1.87;;
46931;SDS011;32670;51.464;11.964;2023-07-29T08:19:48;2.37;;;2.13;;
46931;SDS011;32670;51.464;11.964;2023-07-29T08:22:14;17.33;;;2.80;;
46931;SDS011;32670;51.464;11.964;2023-07-29T08:24:41;9.83;;;2.70;;
46931;SDS011;32670;51.464;11.964;2023-07-29T08:27:07;7.93;;;2.63;;
46931;SDS011;32670;51.464;11.964;2023-07-29T08:29:33;5.37;;;2.57;;
46931;SDS011;32670;51.464;11.964;2023-07-29T08:31:58;5.57;;;2.20;;
46931;SDS011;32670;51.464;11.964;2023-07-29T08:34:24;8.97;;;2.50;;
46931;SDS011;32670;51.464;11.964;2023-07-29T08:36:49;6.90;;;2.70;;
46931;SDS011;32670;51.464;11.964;2023-07-29T08:39:14;6.60;;;2.77;;
46931;SDS011;32670;51.464;11.964;2023-07-29T08:41:41;6.97;;;2.50;;
46931;SDS011;32670;51.464;11.964;2023-07-29T08:44:18;8.23;;;2.60;;
46931;SDS011;32670;51.464;11.964;2023-07-29T08:46:48;5.13;;;2.70;;
46931;SDS011;32670;51.464;11.964;2023-07-29T08:49:15;4.47;;;2.40;;
46931;SDS011;32670;51.464;11.964;2023-07-29T08:51:43;5.80;;;2.40;;
46931;SDS011;32670;51.464;11.964;2023-07-29T08:54:11;3.37;;;2.50;;
46931;SDS011;32670;51.464;11.964;2023-07-29T08:56:37;2.40;;;2.20;;
46931;SDS011;32670;51.464;11.964;2023-07-29T08:59:03;2.60;;;2.20;;
46931;SDS011;32670;51.464;11.964;2023-07-29T09:01:29;3.03;;;2.73;;
46931;SDS011;32670;51.464;11.964;2023-07-29T09:03:55;5.63;;;2.70;;
46931;SDS011;32670;51.464;11.964;2023-07-29T09:06:21;3.53;;;2.47;;
46931;SDS011;32670;51.464;11.964;2023-07-29T09:08:50;3.63;;;2.50;;
46931;SDS011;32670;51.464;11.964;2023-07-29T09:11:17;3.20;;;2.80;;
46931;SDS011;32670;51.464;11.964;2023-07-29T09:13:44;2.50;;;2.30;;
46931;SDS011;32670;51.464;11.964;2023-07-29T09:16:09;3.23;;;2.33;;
46931;SDS011;32670;51.464;11.964;2023-07-29T09:18:35;2.90;;;2.60;;
46931;SDS011;32670;51.464;11.964;2023-07-29T09:21:00;3.03;;;2.63;;
46931;SDS011;32670;51.464;11.964;2023-07-29T09:23:26;2.83;;;2.50;;
46931;SDS011;32670;51.464;11.964;2023-07-29T09:26:00;3.90;;;2.63;;
46931;SDS011;32670;51.464;11.964;2023-07-29T09:28:26;2.90;;;2.60;;
46931;SDS011;32670;51.464;11.964;2023-07-29T09:30:56;3.20;;;2.50;;
46931;SDS011;32670;51.464;11.964;2023-07-29T09:33:23;2.60;;;2.40;;
46931;SDS011;32670;51.464;11.964;2023-07-29T09:35:50;4.83;;;2.80;;
46931;SDS011;32670;51.464;11.964;2023-07-29T09:38:16;5.00;;;2.97;;
46931;SDS011;32670;51.464;11.964;2023-07-29T09:40:41;2.83;;;2.60;;
46931;SDS011;32670;51.464;11.964;2023-07-29T09:43:08;2.80;;;2.60;;
46931;SDS011;32670;51.464;11.964;2023-07-29T09:45:35;3.20;;;2.67;;
46931;SDS011;32670;51.464;11.964;2023-07-29T09:48:01;3.20;;;2.70;;
46931;SDS011;32670;51.464;11.964;2023-07-29T09:50:27;3.53;;;3.00;;
46931;SDS011;32670;51.464;11.964;2023-07-29T09:52:54;3.40;;;3.10;;
46931;SDS011;32670;51.464;11.964;2023-07-29T09:55:21;2.87;;;2.63;;
46931;SDS011;32670;51.464;11.964;2023-07-29T09:57:52;3.30;;;3.00;;
46931;SDS011;32670;51.464;11.964;2023-07-29T10:00:22;3.20;;;2.90;;
46931;SDS011;32670;51.464;11.964;2023-07-29T10:02:48;3.43;;;2.97;;
46931;SDS011;32670;51.464;11.964;2023-07-29T10:05:14;4.20;;;3.00;;
46931;SDS011;32670;51.464;11.964;2023-07-29T10:07:40;3.20;;;2.90;;
46931;SDS011;32670;51.464;11.964;2023-07-29T10:10:06;4.70;;;2.70;;
46931;SDS011;32670;51.464;11.964;2023-07-29T10:12:32;3.00;;;2.80;;
46931;SDS011;32670;51.464;11.964;2023-07-29T10:15:01;2.93;;;2.67;;
46931;SDS011;32670;51.464;11.964;2023-07-29T10:17:29;4.03;;;3.00;;
46931;SDS011;32670;51.464;11.964;2023-07-29T10:19:56;3.33;;;2.83;;
46931;SDS011;32670;51.464;11.964;2023-07-29T10:22:25;3.67;;;3.20;;
46931;SDS011;32670;51.464;11.964;2023-07-29T10:24:54;3.97;;;3.20;;
46931;SDS011;32670;51.464;11.964;2023-07-29T10:27:23;3.60;;;2.90;;
46931;SDS011;32670;51.464;11.964;2023-07-29T10:29:49;3.87;;;3.10;;
46931;SDS011;32670;51.464;11.964;2023-07-29T10:32:17;3.20;;;2.90;;
46931;SDS011;32670;51.464;11.964;2023-07-29T10:34:46;3.67;;;2.80;;
46931;SDS011;32670;51.464;11.964;2023-07-29T10:37:11;4.13;;;3.37;;
46931;SDS011;32670;51.464;11.964;2023-07-29T10:39:38;3.07;;;2.80;;
46931;SDS011;32670;51.464;11.964;2023-07-29T10:42:05;3.23;;;3.00;;
46931;SDS011;32670;51.464;11.964;2023-07-29T10:47:18;3.27;;;3.00;;
46931;SDS011;32670;51.464;11.964;2023-07-29T10:49:46;3.40;;;3.10;;
46931;SDS011;32670;51.464;11.964;2023-07-29T10:52:14;3.10;;;2.90;;
46931;SDS011;32670;51.464;11.964;2023-07-29T10:54:44;3.10;;;2.90;;
46931;SDS011;32670;51.464;11.964;2023-07-29T10:57:15;2.97;;;2.77;;
46931;SDS011;32670;51.464;11.964;2023-07-29T10:59:55;3.27;;;2.97;;
46931;SDS011;32670;51.464;11.964;2023-07-29T11:02:21;3.80;;;3.23;;
46931;SDS011;32670;51.464;11.964;2023-07-29T11:05:05;3.40;;;3.10;;
46931;SDS011;32670;51.464;11.964;2023-07-29T11:07:42;5.50;;;3.30;;
46931;SDS011;32670;51.464;11.964;2023-07-29T11:10:09;3.13;;;2.93;;
46931;SDS011;32670;51.464;11.964;2023-07-29T11:12:52;3.83;;;3.53;;
46931;SDS011;32670;51.464;11.964;2023-07-29T11:15:20;3.43;;;3.13;;
46931;SDS011;32670;51.464;11.964;2023-07-29T11:20:17;3.33;;;3.03;;
46931;SDS011;32670;51.464;11.964;2023-07-29T11:22:44;3.53;;;3.23;;
46931;SDS011;32670;51.464;11.964;2023-07-29T11:25:11;3.20;;;2.90;;
46931;SDS011;32670;51.464;11.964;2023-07-29T11:27:38;3.63;;;3.30;;
46931;SDS011;32670;51.464;11.964;2023-07-29T11:30:05;3.10;;;2.90;;
46931;SDS011;32670;51.464;11.964;2023-07-29T11:32:33;3.77;;;3.30;;
46931;SDS011;32670;51.464;11.964;2023-07-29T11:35:03;3.57;;;3.27;;
46931;SDS011;32670;51.464;11.964;2023-07-29T11:37:29;3.43;;;3.17;;
46931;SDS011;32670;51.464;11.964;2023-07-29T11:39:55;3.60;;;3.30;;
46931;SDS011;32670;51.464;11.964;2023-07-29T11:42:20;3.20;;;2.90;;
46931;SDS011;32670;51.464;11.964;2023-07-29T11:44:46;3.70;;;3.40;;
46931;SDS011;32670;51.464;11.964;2023-07-29T11:47:12;4.07;;;3.47;;
46931;SDS011;32670;51.464;11.964;2023-07-29T11:49:38;4.03;;;3.73;;
46931;SDS011;32670;51.464;11.964;2023-07-29T11:52:08;4.27;;;3.50;;
46931;SDS011;32670;51.464;11.964;2023-07-29T11:54:38;3.57;;;3.27;;
46931;SDS011;32670;51.464;11.964;2023-07-29T11:57:07;4.10;;;3.70;;
46931;SDS011;32670;51.464;11.964;2023-07-29T11:59:34;3.70;;;3.40;;
46931;SDS011;32670;51.464;11.964;2023-07-29T12:02:00;3.97;;;3.67;;
46931;SDS011;32670;51.464;11.964;2023-07-29T12:04:30;3.90;;;3.60;;
46931;SDS011;32670;51.464;11.964;2023-07-29T12:06:55;6.60;;;3.77;;
46931;SDS011;32670;51.464;11.964;2023-07-29T12:09:21;3.90;;;3.60;;
46931;SDS011;32670;51.464;11.964;2023-07-29T12:11:47;3.97;;;3.67;;
46931;SDS011;32670;51.464;11.964;2023-07-29T12:14:13;3.70;;;3.40;;
46931;SDS011;32670;51.464;11.964;2023-07-29T12:16:44;4.00;;;3.60;;
46931;SDS011;32670;51.464;11.964;2023-07-29T12:19:12;3.87;;;3.57;;
46931;SDS011;32670;51.464;11.964;2023-07-29T12:21:38;3.67;;;3.37;;
46931;SDS011;32670;51.464;11.964;2023-07-29T12:24:08;3.70;;;3.40;;
46931;SDS011;32670;51.464;11.964;2023-07-29T12:26:35;3.93;;;3.37;;
46931;SDS011;32670;51.464;11.964;2023-07-29T12:29:11;3.67;;;3.37;;
46931;SDS011;32670;51.464;11.964;2023-07-29T12:31:37;3.77;;;3.47;;
46931;SDS011;32670;51.464;11.964;2023-07-29T12:34:03;3.83;;;3.43;;
46931;SDS011;32670;51.464;11.964;2023-07-29T12:36:44;3.60;;;3.30;;
46931;SDS011;32670;51.464;11.964;2023-07-29T12:41:45;3.70;;;3.40;;
46931;SDS011;32670;51.464;11.964;2023-07-29T12:44:12;3.83;;;3.43;;
46931;SDS011;32670;51.464;11.964;2023-07-29T12:46:37;4.00;;;3.70;;
46931;SDS011;32670;51.464;11.964;2023-07-29T12:49:03;3.93;;;3.53;;
46931;SDS011;32670;51.464;11.964;2023-07-29T12:51:28;4.03;;;3.73;;
46931;SDS011;32670;51.464;11.964;2023-07-29T12:53:54;3.83;;;3.50;;
46931;SDS011;32670;51.464;11.964;2023-07-29T12:56:19;4.07;;;3.77;;
46931;SDS011;32670;51.464;11.964;2023-07-29T12:58:45;3.63;;;3.33;;
46931;SDS011;32670;51.464;11.964;2023-07-29T13:01:10;3.53;;;3.23;;
46931;SDS011;32670;51.464;11.964;2023-07-29T13:03:42;3.63;;;3.33;;
46931;SDS011;32670;51.464;11.964;2023-07-29T13:06:08;3.37;;;3.10;;
46931;SDS011;32670;51.464;11.964;2023-07-29T13:08:33;3.50;;;3.20;;
46931;SDS011;32670;51.464;11.964;2023-07-29T13:10:59;4.07;;;3.70;;
46931;SDS011;32670;51.464;11.964;2023-07-29T13:13:24;3.37;;;3.17;;
46931;SDS011;32670;51.464;11.964;2023-07-29T13:15:50;3.73;;;3.43;;
46931;SDS011;32670;51.464;11.964;2023-07-29T13:18:16;3.77;;;3.47;;
46931;SDS011;32670;51.464;11.964;2023-07-29T13:20:41;4.17;;;3.77;;
46931;SDS011;32670;51.464;11.964;2023-07-29T13:23:07;4.27;;;3.67;;
46931;SDS011;32670;51.464;11.964;2023-07-29T13:25:32;3.70;;;3.40;;
46931;SDS011;32670;51.464;11.964;2023-07-29T13:27:58;3.70;;;3.40;;
46931;SDS011;32670;51.464;11.964;2023-07-29T13:30:23;3.80;;;3.50;;
46931;SDS011;32670;51.464;11.964;2023-07-29T13:32:49;3.70;;;3.40;;
46931;SDS011;32670;51.464;11.964;2023-07-29T13:35:14;3.60;;;3.30;;
46931;SDS011;32670;51.464;11.964;2023-07-29T13:37:40;3.47;;;3.20;;
46931;SDS011;32670;51.464;11.964;2023-07-29T13:40:05;3.67;;;3.33;;
46931;SDS011;32670;51.464;11.964;2023-07-29T13:42:31;4.00;;;3.67;;
46931;SDS011;32670;51.464;11.964;2023-07-29T13:44:57;3.67;;;3.37;;
46931;SDS011;32670;51.464;11.964;2023-07-29T13:47:22;3.87;;;3.50;;
46931;SDS011;32670;51.464;11.964;2023-07-29T13:49:48;3.57;;;3.27;;
46931;SDS011;32670;51.464;11.964;2023-07-29T13:52:13;3.43;;;3.20;;
46931;SDS011;32670;51.464;11.964;2023-07-29T13:54:39;4.20;;;3.30;;
46931;SDS011;32670;51.464;11.964;2023-07-29T13:57:04;3.60;;;3.30;;
46931;SDS011;32670;51.464;11.964;2023-07-29T13:59:31;3.57;;;3.27;;
46931;SDS011;32670;51.464;11.964;2023-07-29T14:01:57;4.63;;;3.60;;
46931;SDS011;32670;51.464;11.964;2023-07-29T14:04:22;4.00;;;3.60;;
46931;SDS011;32670;51.464;11.964;2023-07-29T14:06:48;3.63;;;3.33;;
46931;SDS011;32670;51.464;11.964;2023-07-29T14:09:13;3.53;;;3.30;;
46931;SDS011;32670;51.464;11.964;2023-07-29T14:11:39;3.47;;;3.17;;
46931;SDS011;32670;51.464;11.964;2023-07-29T14:14:04;3.13;;;2.93;;
46931;SDS011;32670;51.464;11.964;2023-07-29T14:16:30;3.60;;;3.30;;
46931;SDS011;32670;51.464;11.964;2023-07-29T14:18:55;3.67;;;3.33;;
46931;SDS011;32670;51.464;11.964;2023-07-29T14:21:21;4.33;;;3.20;;
46931;SDS011;32670;51.464;11.964;2023-07-29T14:23:46;3.70;;;3.30;;
46931;SDS011;32670;51.464;11.964;2023-07-29T14:26:12;2.90;;;2.70;;
46931;SDS011;32670;51.464;11.964;2023-07-29T14:28:37;3.40;;;3.10;;
46931;SDS011;32670;51.464;11.964;2023-07-29T14:31:03;3.20;;;2.70;;
46931;SDS011;32670;51.464;11.964;2023-07-29T14:33:28;2.30;;;2.10;;
46931;SDS011;32670;51.464;11.964;2023-07-29T14:35:54;3.27;;;2.60;;
46931;SDS011;32670;51.464;11.964;2023-07-29T14:38:19;3.13;;;2.70;;